sensor_id;sensor_type;location;lat;lon;timestamp;temperature;humidity
53880;DHT22;39791;53.184;5.486;2022-11-20T00:00:47;2.10;1.00
53880;DHT22;39791;53.184;5.486;2022-11-20T00:03:13;2.10;1.00
53880;DHT22;39791;53.184;5.486;2022-11-20T00:05:38;2.10;1.00
53880;DHT22;39791;53.184;5.486;2022-11-20T00:08:04;2.20;1.00
53880;DHT22;39791;53.184;5.486;2022-11-20T00:10:30;2.20;1.00
53880;DHT22;39791;53.184;5.486;2022-11-20T00:12:57;2.30;1.00
53880;DHT22;39791;53.184;5.486;2022-11-20T00:15:22;2.30;1.00
53880;DHT22;39791;53.184;5.486;2022-11-20T00:17:48;2.30;1.00
53880;DHT22;39791;53.184;5.486;2022-11-20T00:20:14;2.30;1.00
53880;DHT22;39791;53.184;5.486;2022-11-20T00:22:39;2.20;1.00
53880;DHT22;39791;53.184;5.486;2022-11-20T00:25:05;2.10;1.00
53880;DHT22;39791;53.184;5.486;2022-11-20T00:27:30;2.10;1.00
53880;DHT22;39791;53.184;5.486;2022-11-20T00:29:56;2.30;1.00
53880;DHT22;39791;53.184;5.486;2022-11-20T00:32:21;2.10;1.00
53880;DHT22;39791;53.184;5.486;2022-11-20T00:34:47;2.10;1.00
53880;DHT22;39791;53.184;5.486;2022-11-20T00:37:13;2.20;1.00
53880;DHT22;39791;53.184;5.486;2022-11-20T00:39:38;2.20;1.00
53880;DHT22;39791;53.184;5.486;2022-11-20T00:42:04;2.20;1.00
53880;DHT22;39791;53.184;5.486;2022-11-20T00:44:29;2.20;1.00
53880;DHT22;39791;53.184;5.486;2022-11-20T00:46:55;2.00;1.00
53880;DHT22;39791;53.184;5.486;2022-11-20T00:49:20;2.00;1.00
53880;DHT22;39791;53.184;5.486;2022-11-20T00:51:46;2.00;1.00
53880;DHT22;39791;53.184;5.486;2022-11-20T00:54:11;2.00;1.00
53880;DHT22;39791;53.184;5.486;2022-11-20T00:56:37;2.50;1.00
53880;DHT22;39791;53.184;5.486;2022-11-20T00:59:02;2.20;1.00
53880;DHT22;39791;53.184;5.486;2022-11-20T01:01:28;2.20;1.00
53880;DHT22;39791;53.184;5.486;2022-11-20T01:03:56;2.10;1.00
53880;DHT22;39791;53.184;5.486;2022-11-20T01:06:25;2.10;1.00
53880;DHT22;39791;53.184;5.486;2022-11-20T01:08:53;2.10;1.00
53880;DHT22;39791;53.184;5.486;2022-11-20T01:11:22;2.10;1.00
53880;DHT22;39791;53.184;5.486;2022-11-20T01:13:49;2.50;1.00
53880;DHT22;39791;53.184;5.486;2022-11-20T01:16:30;2.10;1.00
53880;DHT22;39791;53.184;5.486;2022-11-20T01:18:59;2.00;1.00
53880;DHT22;39791;53.184;5.486;2022-11-20T01:21:30;2.00;1.00
53880;DHT22;39791;53.184;5.486;2022-11-20T01:23:56;2.00;1.00
53880;DHT22;39791;53.184;5.486;2022-11-20T01:26:25;2.00;1.00
53880;DHT22;39791;53.184;5.486;2022-11-20T01:28:51;1.90;1.00
53880;DHT22;39791;53.184;5.486;2022-11-20T01:31:23;2.60;1.00
53880;DHT22;39791;53.184;5.486;2022-11-20T01:33:51;2.00;1.00
53880;DHT22;39791;53.184;5.486;2022-11-20T01:36:19;2.00;1.00
53880;DHT22;39791;53.184;5.486;2022-11-20T01:38:45;2.00;1.00
53880;DHT22;39791;53.184;5.486;2022-11-20T01:41:12;2.00;1.00
53880;DHT22;39791;53.184;5.486;2022-11-20T01:43:58;2.10;1.00
53880;DHT22;39791;53.184;5.486;2022-11-20T01:46:24;2.00;1.00
53880;DHT22;39791;53.184;5.486;2022-11-20T01:49:01;2.00;1.00
53880;DHT22;39791;53.184;5.486;2022-11-20T01:53:54;1.90;1.00
53880;DHT22;39791;53.184;5.486;2022-11-20T01:56:21;1.90;1.00
53880;DHT22;39791;53.184;5.486;2022-11-20T01:58:53;1.90;1.00
53880;DHT22;39791;53.184;5.486;2022-11-20T02:01:20;1.90;1.00
53880;DHT22;39791;53.184;5.486;2022-11-20T02:03:46;2.00;1.00
53880;DHT22;39791;53.184;5.486;2022-11-20T02:06:47;1.90;1.00
53880;DHT22;39791;53.184;5.486;2022-11-20T02:09:04;2.00;1.00
53880;DHT22;39791;53.184;5.486;2022-11-20T02:11:31;2.00;1.00
53880;DHT22;39791;53.184;5.486;2022-11-20T02:13:57;2.00;1.00
53880;DHT22;39791;53.184;5.486;2022-11-20T02:16:27;2.00;1.00
53880;DHT22;39791;53.184;5.486;2022-11-20T02:18:55;2.00;1.00
53880;DHT22;39791;53.184;5.486;2022-11-20T02:24:07;2.00;1.00
53880;DHT22;39791;53.184;5.486;2022-11-20T02:27:00;1.90;1.00
53880;DHT22;39791;53.184;5.486;2022-11-20T02:29:31;1.90;1.00
53880;DHT22;39791;53.184;5.486;2022-11-20T02:31:57;2.20;1.00
53880;DHT22;39791;53.184;5.486;2022-11-20T02:34:24;1.90;1.00
53880;DHT22;39791;53.184;5.486;2022-11-20T02:36:51;1.90;1.00
53880;DHT22;39791;53.184;5.486;2022-11-20T02:39:17;1.90;1.00
53880;DHT22;39791;53.184;5.486;2022-11-20T02:41:44;1.90;1.00
53880;DHT22;39791;53.184;5.486;2022-11-20T02:44:10;1.80;1.00
53880;DHT22;39791;53.184;5.486;2022-11-20T02:46:35;1.70;1.00
53880;DHT22;39791;53.184;5.486;2022-11-20T02:49:03;1.70;1.00
53880;DHT22;39791;53.184;5.486;2022-11-20T02:51:29;1.60;1.00
53880;DHT22;39791;53.184;5.486;2022-11-20T02:53:55;1.50;1.00
53880;DHT22;39791;53.184;5.486;2022-11-20T02:56:20;1.50;1.00
53880;DHT22;39791;53.184;5.486;2022-11-20T02:58:46;1.50;1.00
53880;DHT22;39791;53.184;5.486;2022-11-20T03:01:12;1.50;1.00
53880;DHT22;39791;53.184;5.486;2022-11-20T03:03:37;1.50;1.00
53880;DHT22;39791;53.184;5.486;2022-11-20T03:06:03;1.50;1.00
53880;DHT22;39791;53.184;5.486;2022-11-20T03:08:28;1.40;1.00
53880;DHT22;39791;53.184;5.486;2022-11-20T03:10:54;1.40;1.00
53880;DHT22;39791;53.184;5.486;2022-11-20T03:13:19;1.40;1.00
53880;DHT22;39791;53.184;5.486;2022-11-20T03:15:45;1.40;1.00
53880;DHT22;39791;53.184;5.486;2022-11-20T03:18:10;1.40;1.00
53880;DHT22;39791;53.184;5.486;2022-11-20T03:20:36;1.40;1.00
53880;DHT22;39791;53.184;5.486;2022-11-20T03:23:02;1.50;1.00
53880;DHT22;39791;53.184;5.486;2022-11-20T03:25:28;1.40;1.00
53880;DHT22;39791;53.184;5.486;2022-11-20T03:27:54;1.50;1.00
53880;DHT22;39791;53.184;5.486;2022-11-20T03:30:19;1.40;1.00
53880;DHT22;39791;53.184;5.486;2022-11-20T03:32:45;1.40;1.00
53880;DHT22;39791;53.184;5.486;2022-11-20T03:35:11;1.40;1.00
53880;DHT22;39791;53.184;5.486;2022-11-20T03:37:36;1.40;1.00
53880;DHT22;39791;53.184;5.486;2022-11-20T03:40:03;1.30;1.00
53880;DHT22;39791;53.184;5.486;2022-11-20T03:42:28;1.30;1.00
53880;DHT22;39791;53.184;5.486;2022-11-20T03:45:16;1.30;1.00
53880;DHT22;39791;53.184;5.486;2022-11-20T03:47:43;1.40;1.00
53880;DHT22;39791;53.184;5.486;2022-11-20T03:50:10;1.40;1.00
53880;DHT22;39791;53.184;5.486;2022-11-20T03:52:36;1.40;1.00
53880;DHT22;39791;53.184;5.486;2022-11-20T03:55:01;1.50;1.00
53880;DHT22;39791;53.184;5.486;2022-11-20T03:57:27;1.50;3.10
53880;DHT22;39791;53.184;5.486;2022-11-20T03:59:52;1.50;5.70
53880;DHT22;39791;53.184;5.486;2022-11-20T04:02:18;1.40;3.40
53880;DHT22;39791;53.184;5.486;2022-11-20T04:04:43;1.40;1.00
53880;DHT22;39791;53.184;5.486;2022-11-20T04:07:10;1.30;1.00
53880;DHT22;39791;53.184;5.486;2022-11-20T04:09:35;1.20;1.00
53880;DHT22;39791;53.184;5.486;2022-11-20T04:12:01;1.20;1.00
53880;DHT22;39791;53.184;5.486;2022-11-20T04:14:26;1.20;1.00
53880;DHT22;39791;53.184;5.486;2022-11-20T04:16:52;1.00;1.00
53880;DHT22;39791;53.184;5.486;2022-11-20T04:19:17;0.90;1.00
53880;DHT22;39791;53.184;5.486;2022-11-20T04:21:43;1.00;1.00
53880;DHT22;39791;53.184;5.486;2022-11-20T04:24:09;0.90;1.00
53880;DHT22;39791;53.184;5.486;2022-11-20T04:26:38;0.80;1.00
53880;DHT22;39791;53.184;5.486;2022-11-20T04:29:04;0.80;1.00
53880;DHT22;39791;53.184;5.486;2022-11-20T04:31:31;0.70;1.00
53880;DHT22;39791;53.184;5.486;2022-11-20T04:34:02;0.70;1.00
53880;DHT22;39791;53.184;5.486;2022-11-20T04:36:29;0.80;1.00
53880;DHT22;39791;53.184;5.486;2022-11-20T04:38:57;0.60;1.00
53880;DHT22;39791;53.184;5.486;2022-11-20T04:41:24;0.60;1.00
53880;DHT22;39791;53.184;5.486;2022-11-20T04:43:52;0.60;1.00
53880;DHT22;39791;53.184;5.486;2022-11-20T04:46:20;0.60;1.00
53880;DHT22;39791;53.184;5.486;2022-11-20T04:48:46;0.60;2.00
53880;DHT22;39791;53.184;5.486;2022-11-20T04:51:12;0.60;1.00
53880;DHT22;39791;53.184;5.486;2022-11-20T04:53:38;0.50;1.00
53880;DHT22;39791;53.184;5.486;2022-11-20T04:56:06;0.60;6.80
53880;DHT22;39791;53.184;5.486;2022-11-20T04:58:32;0.70;11.90
53880;DHT22;39791;53.184;5.486;2022-11-20T05:01:06;0.70;19.30
53880;DHT22;39791;53.184;5.486;2022-11-20T05:03:32;0.70;24.30
53880;DHT22;39791;53.184;5.486;2022-11-20T05:06:02;0.50;11.00
53880;DHT22;39791;53.184;5.486;2022-11-20T05:08:28;0.50;13.50
53880;DHT22;39791;53.184;5.486;2022-11-20T05:10:54;0.50;7.40
53880;DHT22;39791;53.184;5.486;2022-11-20T05:13:19;0.50;11.10
53880;DHT22;39791;53.184;5.486;2022-11-20T05:15:45;0.70;90.40
53880;DHT22;39791;53.184;5.486;2022-11-20T05:18:10;0.70;76.80
53880;DHT22;39791;53.184;5.486;2022-11-20T05:20:36;0.70;72.40
53880;DHT22;39791;53.184;5.486;2022-11-20T05:23:02;0.60;76.30
53880;DHT22;39791;53.184;5.486;2022-11-20T05:25:27;0.60;81.00
53880;DHT22;39791;53.184;5.486;2022-11-20T05:27:53;0.60;91.00
53880;DHT22;39791;53.184;5.486;2022-11-20T05:30:18;0.70;94.70
53880;DHT22;39791;53.184;5.486;2022-11-20T05:32:44;0.60;93.90
53880;DHT22;39791;53.184;5.486;2022-11-20T05:35:09;0.40;84.60
53880;DHT22;39791;53.184;5.486;2022-11-20T05:37:35;0.30;64.10
53880;DHT22;39791;53.184;5.486;2022-11-20T05:40:00;0.00;49.20
53880;DHT22;39791;53.184;5.486;2022-11-20T05:42:29;0.10;57.40
53880;DHT22;39791;53.184;5.486;2022-11-20T05:45:01;0.20;59.40
53880;DHT22;39791;53.184;5.486;2022-11-20T05:47:30;0.30;73.10
53880;DHT22;39791;53.184;5.486;2022-11-20T05:49:56;0.40;90.30
53880;DHT22;39791;53.184;5.486;2022-11-20T05:52:22;0.40;91.70
53880;DHT22;39791;53.184;5.486;2022-11-20T05:54:47;0.30;87.90
53880;DHT22;39791;53.184;5.486;2022-11-20T05:57:13;0.40;94.30
53880;DHT22;39791;53.184;5.486;2022-11-20T05:59:38;0.50;99.90
53880;DHT22;39791;53.184;5.486;2022-11-20T06:02:04;0.40;99.90
53880;DHT22;39791;53.184;5.486;2022-11-20T06:04:29;0.30;98.80
53880;DHT22;39791;53.184;5.486;2022-11-20T06:06:55;0.20;94.60
53880;DHT22;39791;53.184;5.486;2022-11-20T06:09:20;0.30;92.00
53880;DHT22;39791;53.184;5.486;2022-11-20T06:11:46;0.20;92.10
53880;DHT22;39791;53.184;5.486;2022-11-20T06:14:12;0.20;93.60
53880;DHT22;39791;53.184;5.486;2022-11-20T06:16:37;0.40;99.90
53880;DHT22;39791;53.184;5.486;2022-11-20T06:19:03;0.40;99.90
53880;DHT22;39791;53.184;5.486;2022-11-20T06:21:28;0.30;99.90
53880;DHT22;39791;53.184;5.486;2022-11-20T06:23:54;0.30;99.90
53880;DHT22;39791;53.184;5.486;2022-11-20T06:26:22;0.40;99.90
53880;DHT22;39791;53.184;5.486;2022-11-20T06:28:48;0.50;99.90
53880;DHT22;39791;53.184;5.486;2022-11-20T06:31:16;0.50;99.90
53880;DHT22;39791;53.184;5.486;2022-11-20T06:33:43;0.50;99.90
53880;DHT22;39791;53.184;5.486;2022-11-20T06:36:10;0.50;99.90
53880;DHT22;39791;53.184;5.486;2022-11-20T06:38:37;0.60;99.90
53880;DHT22;39791;53.184;5.486;2022-11-20T06:41:13;0.50;99.90
53880;DHT22;39791;53.184;5.486;2022-11-20T06:43:39;0.60;99.90
53880;DHT22;39791;53.184;5.486;2022-11-20T06:46:05;0.80;99.90
53880;DHT22;39791;53.184;5.486;2022-11-20T06:48:31;0.90;99.90
53880;DHT22;39791;53.184;5.486;2022-11-20T06:50:57;1.10;99.90
53880;DHT22;39791;53.184;5.486;2022-11-20T06:53:23;1.10;99.90
53880;DHT22;39791;53.184;5.486;2022-11-20T06:55:50;1.10;99.90
53880;DHT22;39791;53.184;5.486;2022-11-20T06:58:17;1.20;99.90
53880;DHT22;39791;53.184;5.486;2022-11-20T07:00:43;1.10;99.90
53880;DHT22;39791;53.184;5.486;2022-11-20T07:03:10;1.10;99.90
53880;DHT22;39791;53.184;5.486;2022-11-20T07:05:36;1.00;99.90
53880;DHT22;39791;53.184;5.486;2022-11-20T07:08:04;0.90;99.90
53880;DHT22;39791;53.184;5.486;2022-11-20T07:10:30;0.90;99.90
53880;DHT22;39791;53.184;5.486;2022-11-20T07:12:56;0.70;99.90
53880;DHT22;39791;53.184;5.486;2022-11-20T07:15:23;0.70;99.90
53880;DHT22;39791;53.184;5.486;2022-11-20T07:17:49;0.80;99.90
53880;DHT22;39791;53.184;5.486;2022-11-20T07:20:15;0.80;99.90
53880;DHT22;39791;53.184;5.486;2022-11-20T07:22:40;0.90;99.90
53880;DHT22;39791;53.184;5.486;2022-11-20T07:25:07;0.80;99.90
53880;DHT22;39791;53.184;5.486;2022-11-20T07:27:33;0.90;99.90
53880;DHT22;39791;53.184;5.486;2022-11-20T07:29:58;0.90;99.90
53880;DHT22;39791;53.184;5.486;2022-11-20T07:32:24;0.90;99.90
53880;DHT22;39791;53.184;5.486;2022-11-20T07:34:49;0.90;99.90
53880;DHT22;39791;53.184;5.486;2022-11-20T07:37:15;0.80;99.90
53880;DHT22;39791;53.184;5.486;2022-11-20T07:39:41;0.80;95.50
53880;DHT22;39791;53.184;5.486;2022-11-20T07:42:07;1.40;91.90
53880;DHT22;39791;53.184;5.486;2022-11-20T07:44:36;1.30;80.20
53880;DHT22;39791;53.184;5.486;2022-11-20T07:47:01;0.70;67.70
53880;DHT22;39791;53.184;5.486;2022-11-20T07:49:27;0.70;61.40
53880;DHT22;39791;53.184;5.486;2022-11-20T07:51:53;0.60;59.50
53880;DHT22;39791;53.184;5.486;2022-11-20T07:54:20;0.70;57.50
53880;DHT22;39791;53.184;5.486;2022-11-20T07:56:46;0.60;56.30
53880;DHT22;39791;53.184;5.486;2022-11-20T07:59:11;0.70;58.20
53880;DHT22;39791;53.184;5.486;2022-11-20T08:01:38;0.70;63.00
53880;DHT22;39791;53.184;5.486;2022-11-20T08:04:04;0.80;75.50
53880;DHT22;39791;53.184;5.486;2022-11-20T08:06:30;0.90;83.10
53880;DHT22;39791;53.184;5.486;2022-11-20T08:08:55;1.40;81.40
53880;DHT22;39791;53.184;5.486;2022-11-20T08:11:21;1.00;93.80
53880;DHT22;39791;53.184;5.486;2022-11-20T08:14:05;1.20;99.90
53880;DHT22;39791;53.184;5.486;2022-11-20T08:16:37;1.30;99.90
53880;DHT22;39791;53.184;5.486;2022-11-20T08:19:03;1.40;99.90
53880;DHT22;39791;53.184;5.486;2022-11-20T08:21:30;1.40;99.90
53880;DHT22;39791;53.184;5.486;2022-11-20T08:23:57;1.50;99.90
53880;DHT22;39791;53.184;5.486;2022-11-20T08:26:23;1.70;99.90
53880;DHT22;39791;53.184;5.486;2022-11-20T08:28:49;1.80;99.90
53880;DHT22;39791;53.184;5.486;2022-11-20T08:31:14;2.00;99.90
53880;DHT22;39791;53.184;5.486;2022-11-20T08:33:40;2.40;99.90
53880;DHT22;39791;53.184;5.486;2022-11-20T08:36:06;2.40;99.90
53880;DHT22;39791;53.184;5.486;2022-11-20T08:38:32;2.40;99.90
53880;DHT22;39791;53.184;5.486;2022-11-20T08:40:59;2.70;99.90
53880;DHT22;39791;53.184;5.486;2022-11-20T08:43:43;3.20;99.90
53880;DHT22;39791;53.184;5.486;2022-11-20T08:46:09;2.70;99.90
53880;DHT22;39791;53.184;5.486;2022-11-20T08:48:34;2.70;99.90
53880;DHT22;39791;53.184;5.486;2022-11-20T08:51:00;2.70;99.90
53880;DHT22;39791;53.184;5.486;2022-11-20T08:53:26;2.70;99.90
53880;DHT22;39791;53.184;5.486;2022-11-20T08:55:52;2.90;99.90
53880;DHT22;39791;53.184;5.486;2022-11-20T08:58:17;2.60;99.90
53880;DHT22;39791;53.184;5.486;2022-11-20T09:00:43;2.60;99.90
53880;DHT22;39791;53.184;5.486;2022-11-20T09:03:08;2.70;99.90
53880;DHT22;39791;53.184;5.486;2022-11-20T09:05:34;2.70;99.90
53880;DHT22;39791;53.184;5.486;2022-11-20T09:08:00;2.70;99.90
53880;DHT22;39791;53.184;5.486;2022-11-20T09:10:28;2.80;99.90
53880;DHT22;39791;53.184;5.486;2022-11-20T09:12:54;3.00;99.90
53880;DHT22;39791;53.184;5.486;2022-11-20T09:15:20;3.00;99.90
53880;DHT22;39791;53.184;5.486;2022-11-20T09:17:52;3.00;99.90
53880;DHT22;39791;53.184;5.486;2022-11-20T09:20:19;3.10;99.90
53880;DHT22;39791;53.184;5.486;2022-11-20T09:22:44;3.20;99.90
53880;DHT22;39791;53.184;5.486;2022-11-20T09:25:10;3.50;99.90
53880;DHT22;39791;53.184;5.486;2022-11-20T09:27:35;3.50;99.90
53880;DHT22;39791;53.184;5.486;2022-11-20T09:30:02;3.50;99.90
53880;DHT22;39791;53.184;5.486;2022-11-20T09:32:27;3.50;99.90
53880;DHT22;39791;53.184;5.486;2022-11-20T09:34:53;3.60;99.90
53880;DHT22;39791;53.184;5.486;2022-11-20T09:37:18;3.60;99.90
53880;DHT22;39791;53.184;5.486;2022-11-20T09:39:44;3.50;99.90
53880;DHT22;39791;53.184;5.486;2022-11-20T09:42:13;3.50;99.90
53880;DHT22;39791;53.184;5.486;2022-11-20T09:44:56;3.50;99.90
53880;DHT22;39791;53.184;5.486;2022-11-20T09:47:46;3.70;99.90
53880;DHT22;39791;53.184;5.486;2022-11-20T09:55:37;3.90;99.90
53880;DHT22;39791;53.184;5.486;2022-11-20T09:58:06;3.80;99.90
53880;DHT22;39791;53.184;5.486;2022-11-20T10:00:31;3.80;99.90
53880;DHT22;39791;53.184;5.486;2022-11-20T10:03:02;3.90;99.90
53880;DHT22;39791;53.184;5.486;2022-11-20T10:05:40;3.80;99.90
53880;DHT22;39791;53.184;5.486;2022-11-20T10:08:22;3.80;99.90
53880;DHT22;39791;53.184;5.486;2022-11-20T10:13:36;3.90;99.90
53880;DHT22;39791;53.184;5.486;2022-11-20T10:19:01;3.80;99.90
53880;DHT22;39791;53.184;5.486;2022-11-20T10:21:49;3.80;99.90
53880;DHT22;39791;53.184;5.486;2022-11-20T10:24:39;3.80;99.90
53880;DHT22;39791;53.184;5.486;2022-11-20T10:30:13;3.80;99.90
53880;DHT22;39791;53.184;5.486;2022-11-20T10:32:47;3.90;99.90
53880;DHT22;39791;53.184;5.486;2022-11-20T10:37:42;4.10;99.90
53880;DHT22;39791;53.184;5.486;2022-11-20T10:40:51;4.20;99.90
53880;DHT22;39791;53.184;5.486;2022-11-20T10:43:47;4.20;99.90
53880;DHT22;39791;53.184;5.486;2022-11-20T10:46:20;4.20;99.90
53880;DHT22;39791;53.184;5.486;2022-11-20T10:48:48;4.30;99.90
53880;DHT22;39791;53.184;5.486;2022-11-20T10:51:21;4.30;99.90
53880;DHT22;39791;53.184;5.486;2022-11-20T10:56:52;4.40;99.90
53880;DHT22;39791;53.184;5.486;2022-11-20T11:02:15;4.60;96.00
53880;DHT22;39791;53.184;5.486;2022-11-20T11:04:50;4.60;88.30
53880;DHT22;39791;53.184;5.486;2022-11-20T11:07:27;4.70;57.90
53880;DHT22;39791;53.184;5.486;2022-11-20T11:09:55;4.80;31.00
53880;DHT22;39791;53.184;5.486;2022-11-20T11:12:24;5.00;39.40
53880;DHT22;39791;53.184;5.486;2022-11-20T11:14:55;5.10;29.70
53880;DHT22;39791;53.184;5.486;2022-11-20T11:17:25;5.20;18.30
53880;DHT22;39791;53.184;5.486;2022-11-20T11:22:49;5.30;1.00
53880;DHT22;39791;53.184;5.486;2022-11-20T11:27:49;5.30;1.00
53880;DHT22;39791;53.184;5.486;2022-11-20T11:30:17;5.30;1.00
53880;DHT22;39791;53.184;5.486;2022-11-20T11:32:43;5.20;1.00
53880;DHT22;39791;53.184;5.486;2022-11-20T11:35:21;5.10;1.00
53880;DHT22;39791;53.184;5.486;2022-11-20T11:37:47;5.00;99.90
53880;DHT22;39791;53.184;5.486;2022-11-20T11:40:14;5.00;99.90
53880;DHT22;39791;53.184;5.486;2022-11-20T11:42:46;5.00;99.90
53880;DHT22;39791;53.184;5.486;2022-11-20T11:45:15;5.00;99.90
53880;DHT22;39791;53.184;5.486;2022-11-20T11:55:42;5.10;99.90
53880;DHT22;39791;53.184;5.486;2022-11-20T12:01:10;5.00;99.90
53880;DHT22;39791;53.184;5.486;2022-11-20T12:03:39;5.00;99.90
53880;DHT22;39791;53.184;5.486;2022-11-20T12:06:14;5.00;99.90
53880;DHT22;39791;53.184;5.486;2022-11-20T12:08:56;5.00;99.90
53880;DHT22;39791;53.184;5.486;2022-11-20T12:11:34;5.00;99.90
53880;DHT22;39791;53.184;5.486;2022-11-20T12:14:16;5.00;99.90
53880;DHT22;39791;53.184;5.486;2022-11-20T12:16:45;5.00;99.90
53880;DHT22;39791;53.184;5.486;2022-11-20T12:19:13;5.00;99.90
53880;DHT22;39791;53.184;5.486;2022-11-20T12:30:15;4.80;99.90
53880;DHT22;39791;53.184;5.486;2022-11-20T12:33:15;4.70;99.90
53880;DHT22;39791;53.184;5.486;2022-11-20T12:39:05;4.60;99.90
53880;DHT22;39791;53.184;5.486;2022-11-20T12:41:48;4.60;99.90
53880;DHT22;39791;53.184;5.486;2022-11-20T12:56:24;4.30;99.90
53880;DHT22;39791;53.184;5.486;2022-11-20T13:01:55;4.30;99.90
53880;DHT22;39791;53.184;5.486;2022-11-20T13:04:44;4.20;97.90
53880;DHT22;39791;53.184;5.486;2022-11-20T13:07:14;4.20;89.90
53880;DHT22;39791;53.184;5.486;2022-11-20T13:09:45;4.10;75.80
53880;DHT22;39791;53.184;5.486;2022-11-20T13:12:33;4.10;69.10
53880;DHT22;39791;53.184;5.486;2022-11-20T13:15:42;4.10;64.20
53880;DHT22;39791;53.184;5.486;2022-11-20T13:18:11;4.10;68.70
53880;DHT22;39791;53.184;5.486;2022-11-20T13:20:45;4.10;65.80
53880;DHT22;39791;53.184;5.486;2022-11-20T13:23:11;4.10;66.10
53880;DHT22;39791;53.184;5.486;2022-11-20T13:25:39;4.10;66.50
53880;DHT22;39791;53.184;5.486;2022-11-20T13:28:26;4.10;70.80
53880;DHT22;39791;53.184;5.486;2022-11-20T13:30:54;4.00;73.90
53880;DHT22;39791;53.184;5.486;2022-11-20T13:33:30;4.00;64.90
53880;DHT22;39791;53.184;5.486;2022-11-20T13:36:03;4.00;55.70
53880;DHT22;39791;53.184;5.486;2022-11-20T13:38:42;4.00;52.90
53880;DHT22;39791;53.184;5.486;2022-11-20T13:41:09;4.00;56.30
53880;DHT22;39791;53.184;5.486;2022-11-20T13:43:56;4.00;57.90
53880;DHT22;39791;53.184;5.486;2022-11-20T13:46:23;3.90;65.90
53880;DHT22;39791;53.184;5.486;2022-11-20T13:48:51;4.00;69.20
53880;DHT22;39791;53.184;5.486;2022-11-20T13:54:43;4.00;73.80
53880;DHT22;39791;53.184;5.486;2022-11-20T13:59:57;4.00;63.60
53880;DHT22;39791;53.184;5.486;2022-11-20T14:02:25;4.00;64.90
53880;DHT22;39791;53.184;5.486;2022-11-20T14:04:54;4.00;66.00
53880;DHT22;39791;53.184;5.486;2022-11-20T14:07:24;4.00;73.10
53880;DHT22;39791;53.184;5.486;2022-11-20T14:09:52;4.00;74.70
53880;DHT22;39791;53.184;5.486;2022-11-20T14:12:27;4.00;75.40
53880;DHT22;39791;53.184;5.486;2022-11-20T14:14:53;4.00;81.60
53880;DHT22;39791;53.184;5.486;2022-11-20T14:19:50;4.00;86.90
53880;DHT22;39791;53.184;5.486;2022-11-20T14:22:26;4.00;92.50
53880;DHT22;39791;53.184;5.486;2022-11-20T14:27:27;4.00;91.70
53880;DHT22;39791;53.184;5.486;2022-11-20T14:29:53;4.00;93.00
53880;DHT22;39791;53.184;5.486;2022-11-20T14:32:21;4.00;87.50
53880;DHT22;39791;53.184;5.486;2022-11-20T14:34:50;4.00;84.50
53880;DHT22;39791;53.184;5.486;2022-11-20T14:37:24;4.00;83.60
53880;DHT22;39791;53.184;5.486;2022-11-20T14:39:55;4.00;89.50
53880;DHT22;39791;53.184;5.486;2022-11-20T14:42:24;3.90;87.60
53880;DHT22;39791;53.184;5.486;2022-11-20T14:44:51;3.90;80.30
53880;DHT22;39791;53.184;5.486;2022-11-20T14:47:21;3.90;80.80
53880;DHT22;39791;53.184;5.486;2022-11-20T14:49:49;3.90;84.60
53880;DHT22;39791;53.184;5.486;2022-11-20T14:52:26;3.90;86.40
53880;DHT22;39791;53.184;5.486;2022-11-20T14:54:55;3.90;83.70
53880;DHT22;39791;53.184;5.486;2022-11-20T14:57:27;3.90;91.70
53880;DHT22;39791;53.184;5.486;2022-11-20T15:02:45;3.80;98.40
53880;DHT22;39791;53.184;5.486;2022-11-20T15:05:11;3.80;99.20
53880;DHT22;39791;53.184;5.486;2022-11-20T15:07:43;3.80;95.20
53880;DHT22;39791;53.184;5.486;2022-11-20T15:10:29;3.80;96.10
53880;DHT22;39791;53.184;5.486;2022-11-20T15:12:58;3.70;96.40
53880;DHT22;39791;53.184;5.486;2022-11-20T15:18:19;3.70;99.90
53880;DHT22;39791;53.184;5.486;2022-11-20T15:20:46;3.70;99.90
53880;DHT22;39791;53.184;5.486;2022-11-20T15:23:13;3.70;99.90
53880;DHT22;39791;53.184;5.486;2022-11-20T15:25:40;3.70;99.90
53880;DHT22;39791;53.184;5.486;2022-11-20T15:28:15;3.70;99.90
53880;DHT22;39791;53.184;5.486;2022-11-20T15:30:42;3.70;99.90
53880;DHT22;39791;53.184;5.486;2022-11-20T15:33:09;3.70;99.90
53880;DHT22;39791;53.184;5.486;2022-11-20T15:35:34;3.70;99.90
53880;DHT22;39791;53.184;5.486;2022-11-20T15:38:00;3.60;99.90
53880;DHT22;39791;53.184;5.486;2022-11-20T15:40:26;3.50;99.90
53880;DHT22;39791;53.184;5.486;2022-11-20T15:42:51;3.60;99.90
53880;DHT22;39791;53.184;5.486;2022-11-20T15:45:36;3.50;99.90
53880;DHT22;39791;53.184;5.486;2022-11-20T15:48:03;3.60;99.90
53880;DHT22;39791;53.184;5.486;2022-11-20T15:51:00;3.60;99.90
53880;DHT22;39791;53.184;5.486;2022-11-20T15:53:27;3.60;99.90
53880;DHT22;39791;53.184;5.486;2022-11-20T15:55:53;3.60;99.90
53880;DHT22;39791;53.184;5.486;2022-11-20T15:58:19;3.60;99.90
53880;DHT22;39791;53.184;5.486;2022-11-20T16:00:45;3.60;99.90
53880;DHT22;39791;53.184;5.486;2022-11-20T16:03:11;3.60;99.90
53880;DHT22;39791;53.184;5.486;2022-11-20T16:05:37;3.60;99.90
53880;DHT22;39791;53.184;5.486;2022-11-20T16:08:02;3.50;99.90
53880;DHT22;39791;53.184;5.486;2022-11-20T16:10:28;3.50;99.90
53880;DHT22;39791;53.184;5.486;2022-11-20T16:12:54;3.40;99.90
53880;DHT22;39791;53.184;5.486;2022-11-20T16:15:38;3.40;99.90
53880;DHT22;39791;53.184;5.486;2022-11-20T16:18:11;3.40;99.90
53880;DHT22;39791;53.184;5.486;2022-11-20T16:20:37;3.40;99.90
53880;DHT22;39791;53.184;5.486;2022-11-20T16:23:03;3.50;99.90
53880;DHT22;39791;53.184;5.486;2022-11-20T16:25:29;3.50;99.90
53880;DHT22;39791;53.184;5.486;2022-11-20T16:27:55;3.50;99.90
53880;DHT22;39791;53.184;5.486;2022-11-20T16:30:20;3.60;99.90
53880;DHT22;39791;53.184;5.486;2022-11-20T16:32:46;3.50;99.90
53880;DHT22;39791;53.184;5.486;2022-11-20T16:35:11;3.40;99.90
53880;DHT22;39791;53.184;5.486;2022-11-20T16:37:37;3.40;99.90
53880;DHT22;39791;53.184;5.486;2022-11-20T16:40:03;3.40;99.90
53880;DHT22;39791;53.184;5.486;2022-11-20T16:42:33;3.40;99.90
53880;DHT22;39791;53.184;5.486;2022-11-20T16:44:59;3.60;99.90
53880;DHT22;39791;53.184;5.486;2022-11-20T16:47:24;3.60;99.90
53880;DHT22;39791;53.184;5.486;2022-11-20T16:49:50;3.60;99.90
53880;DHT22;39791;53.184;5.486;2022-11-20T16:52:15;3.60;99.90
53880;DHT22;39791;53.184;5.486;2022-11-20T16:54:41;3.50;99.90
53880;DHT22;39791;53.184;5.486;2022-11-20T16:57:06;3.50;99.90
53880;DHT22;39791;53.184;5.486;2022-11-20T16:59:32;3.50;99.90
53880;DHT22;39791;53.184;5.486;2022-11-20T17:01:57;3.50;99.90
53880;DHT22;39791;53.184;5.486;2022-11-20T17:04:23;3.80;99.90
53880;DHT22;39791;53.184;5.486;2022-11-20T17:06:49;3.50;99.90
53880;DHT22;39791;53.184;5.486;2022-11-20T17:09:14;3.50;99.90
53880;DHT22;39791;53.184;5.486;2022-11-20T17:11:40;3.50;99.90
53880;DHT22;39791;53.184;5.486;2022-11-20T17:14:06;3.50;99.90
53880;DHT22;39791;53.184;5.486;2022-11-20T17:16:35;3.60;99.90
53880;DHT22;39791;53.184;5.486;2022-11-20T17:19:01;3.60;99.90
53880;DHT22;39791;53.184;5.486;2022-11-20T17:21:33;3.60;99.90
53880;DHT22;39791;53.184;5.486;2022-11-20T17:24:01;3.60;99.90
53880;DHT22;39791;53.184;5.486;2022-11-20T17:26:30;3.60;99.90